Kangshan, Taiwan
Current Conditions -  °F | °C
As of 3:00 PM on Friday 31 Oct 2014 (Local Time) from RCKH Reporting Station
Few Clouds Few Clouds  
Wind Chill: 84°   Ceiling: Unl
Heat Index: 87°   Visibility: 6mi
Dew Point: 68°   Wind: 9mph
Humidity: 58%   Direction: 280°W
Pressure: 29.85"   Gusts: NA
Location:  22.8°N, 120.27°E
Report Text: RCKH 310700Z 28008KT 230V330 9999 FEW018 29/20 Q1011 NOSIGRMK 29011KT/R09 A2988
Loading
Personal Weather Stations






























Interactive Weather Map
Tropical Storm Tracking
New forecast layout! Learn more

10-Day Weather Forecast

Advertisements
Track Severe Weather on mobile